Vashon Island, Washington
Current Conditions -  °F | °C
As of 10:53 PM on Friday 24 Oct 2014 (Local Time) from KSEA Reporting Station
Light Rain Light Rain  
Wind Chill: 52°   Ceiling: 6000
Heat Index: 52°   Visibility: 10mi
Dew Point: 48°   Wind: 5mph
Humidity: 86%   Direction: 30°NNE
Pressure: 29.8"   Gusts: NA
Location:  47.4122°N, 122.472°W
Report Text: KSEA 250553Z 03004KT 10SM -RA BKN060 OVC075 11/09 A2980 RMK AO2 SLP096 P0003 60015 T01110089 10133 20106 58020
Loading
Personal Weather Stations






























Interactive Weather Map
Tropical Storm Tracking
New forecast layout! Learn more

10-Day Weather Forecast

Advertisements
Track Severe Weather on mobile